Time;durP1;ratioP1;P1;durP2;ratioP2;P2;SDS_P1;SDS_P2;PMS_P1;PMS_P2;Temp;Humidity;BMP_temperature;BMP_pressure;BME280_temperature;BME280_humidity;BME280_pressure;Samples;Min_cycle;Max_cycle;Signal;HPM_P1;HPM_P2
2022/08/31 00:05:17;;;;;;;6.57;2.10;;;;;;;18.41;62.44;101967.78;5140825;29;20032;-83
2022/08/31 00:07:48;;;;;;;6.87;2.20;;;;;;;18.35;62.93;101967.28;5136313;29;20031;-81
2022/08/31 00:10:20;;;;;;;5.00;2.00;;;;;;;18.36;62.91;101974.25;5136636;29;20035;-83
2022/08/31 00:12:52;;;;;;;9.63;2.20;;;;;;;18.26;63.40;101967.94;5135183;28;20047;-82
2022/08/31 00:15:24;;;;;;;8.80;2.40;;;;;;;18.11;63.97;101949.56;5129766;29;20036;-82
2022/08/31 00:17:55;;;;;;;4.30;2.33;;;;;;;18.22;63.82;101962.03;5141322;29;20039;-83
2022/08/31 00:20:27;;;;;;;7.33;2.30;;;;;;;18.31;63.71;101960.50;5127766;29;20043;-82
2022/08/31 00:22:58;;;;;;;5.77;2.03;;;;;;;18.22;63.73;101971.81;5130686;29;20035;-82
2022/08/31 00:25:30;;;;;;;4.17;2.10;;;;;;;18.18;64.03;101963.25;5138710;29;20086;-82
2022/08/31 00:28:03;;;;;;;4.50;2.47;;;;;;;18.34;63.47;101960.28;5133144;29;20027;-82
2022/08/31 00:30:34;;;;;;;3.83;1.90;;;;;;;18.14;64.32;101959.97;5143399;29;20498;-80
2022/08/31 00:33:07;;;;;;;6.10;2.17;;;;;;;18.13;64.38;101973.31;5128464;29;20114;-82
2022/08/31 00:35:42;;;;;;;3.90;2.30;;;;;;;18.20;64.50;101968.44;5139360;29;20034;-82
2022/08/31 00:38:14;;;;;;;2.93;1.83;;;;;;;18.09;65.04;101966.53;5141110;28;20114;-82
2022/08/31 00:40:46;;;;;;;7.20;2.10;;;;;;;18.07;65.18;101964.00;5129661;29;20059;-81
2022/08/31 00:43:39;;;;;;;5.40;2.00;;;;;;;18.31;63.62;101964.97;5131567;29;20031;-81
2022/08/31 00:46:12;;;;;;;6.57;2.07;;;;;;;18.02;65.45;101964.34;5135796;29;20031;-82
2022/08/31 00:48:54;;;;;;;3.97;1.90;;;;;;;18.18;65.05;101959.72;5138971;29;20035;-82
2022/08/31 00:51:27;;;;;;;3.63;2.17;;;;;;;18.01;65.30;101961.81;5138322;28;20028;-81
2022/08/31 00:53:59;;;;;;;5.23;1.67;;;;;;;18.23;64.43;101962.88;5128018;29;20043;-82
2022/08/31 00:56:33;;;;;;;4.27;2.40;;;;;;;17.92;65.83;101959.84;5126994;29;20467;-81
2022/08/31 00:59:05;;;;;;;;;;;;;;;18.41;62.57;101965.97;5134809;29;20449;-82
2022/08/31 01:01:37;;;;;;;3.50;1.97;;;;;;;18.00;65.30;101963.63;5149326;29;19945;-82
2022/08/31 01:04:09;;;;;;;4.93;2.20;;;;;;;17.81;66.10;101957.97;5166838;28;20114;-82
2022/08/31 01:06:41;;;;;;;3.47;1.87;;;;;;;17.92;66.00;101962.50;5131847;29;20042;-83
2022/08/31 01:09:13;;;;;;;5.00;1.67;;;;;;;17.98;65.50;101960.22;5137366;29;20036;-83
2022/08/31 01:11:44;;;;;;;3.67;1.80;;;;;;;17.83;66.31;101967.50;5139276;28;20039;-83
2022/08/31 01:14:16;;;;;;;12.27;2.20;;;;;;;17.96;66.04;101966.63;5129665;29;20055;-83
2022/08/31 01:16:52;;;;;;;5.37;1.90;;;;;;;17.99;65.81;101967.25;5132414;29;20040;-83
2022/08/31 01:19:38;;;;;;;2.90;1.57;;;;;;;17.97;65.92;101963.00;5138385;29;20745;-84
2022/08/31 01:22:29;;;;;;;3.90;1.90;;;;;;;17.99;65.61;101961.09;5150515;29;20065;-82
2022/08/31 01:25:01;;;;;;;4.80;1.77;;;;;;;17.68;66.56;101950.91;5135257;29;20024;-82
2022/08/31 01:27:35;;;;;;;4.43;1.93;;;;;;;17.81;66.53;101957.97;5135711;29;20094;-81
2022/08/31 01:30:09;;;;;;;5.85;1.83;;;;;;;17.81;66.63;101953.53;5150340;29;20031;-83
2022/08/31 01:32:40;;;;;;;5.33;1.93;;;;;;;17.80;66.46;101949.19;5165036;28;20046;-82
2022/08/31 01:35:12;;;;;;;2.20;1.63;;;;;;;17.68;66.97;101952.75;5142073;29;20047;-82
2022/08/31 01:37:43;;;;;;;6.30;1.87;;;;;;;17.70;67.02;101954.31;5136999;29;20042;-82
2022/08/31 01:40:15;;;;;;;3.93;1.90;;;;;;;17.61;67.33;101953.16;5149493;28;20479;-82
2022/08/31 01:42:46;;;;;;;3.63;1.70;;;;;;;17.73;66.58;101958.56;5150833;29;20114;-82
2022/08/31 01:45:17;;;;;;;3.70;1.80;;;;;;;17.54;67.22;101951.94;5152861;28;20047;-83
2022/08/31 01:47:49;;;;;;;2.97;1.80;;;;;;;17.60;67.06;101956.78;5147761;29;20031;-82
2022/08/31 01:50:20;;;;;;;3.90;1.90;;;;;;;17.60;67.52;101962.09;5130112;29;20118;-83
2022/08/31 01:52:51;;;;;;;3.97;1.93;;;;;;;17.42;67.51;101949.22;5138981;29;20043;-82
2022/08/31 01:55:22;;;;;;;2.90;1.73;;;;;;;17.39;68.06;101944.13;5142301;29;20414;-82
2022/08/31 01:57:56;;;;;;;5.30;1.60;;;;;;;17.45;68.03;101963.19;5138955;29;20134;-83
2022/08/31 02:00:28;;;;;;;5.35;2.20;;;;;;;17.39;68.18;101969.75;5149746;28;20039;-82
2022/08/31 02:03:01;;;;;;;3.87;1.80;;;;;;;17.39;68.10;101965.31;5148998;29;20390;-82
2022/08/31 02:05:34;;;;;;;4.67;1.90;;;;;;;17.31;68.67;101967.69;5149355;28;20034;-82
2022/08/31 02:08:08;;;;;;;3.07;2.00;;;;;;;17.34;68.49;101974.53;5148242;28;20494;-82
2022/08/31 02:10:39;;;;;;;3.83;1.88;;;;;;;17.31;68.45;101966.81;5135290;28;20207;-82
2022/08/31 02:13:11;;;;;;;3.73;1.90;;;;;;;17.11;69.57;101966.41;5149289;29;20101;-85
2022/08/31 02:15:43;;;;;;;6.80;2.00;;;;;;;17.26;68.59;101969.81;5149716;28;20063;-84
2022/08/31 02:18:14;;;;;;;6.03;2.10;;;;;;;17.30;68.61;101968.63;5141843;28;20060;-82
2022/08/31 02:20:45;;;;;;;3.70;1.90;;;;;;;17.11;69.74;101964.63;5130684;29;20555;-83
2022/08/31 02:23:16;;;;;;;2.63;1.90;;;;;;;17.27;68.79;101977.63;5141328;29;20135;-83
2022/08/31 02:25:48;;;;;;;7.10;2.33;;;;;;;17.13;69.66;101968.00;5142460;29;20066;-83
2022/08/31 02:28:19;;;;;;;5.20;2.00;;;;;;;17.20;68.99;101978.16;5136405;28;20031;-82
2022/08/31 02:30:50;;;;;;;3.13;2.07;;;;;;;17.04;69.59;101973.91;5130216;29;20051;-84
2022/08/31 02:33:23;;;;;;;6.00;2.03;;;;;;;17.03;69.90;101981.03;5141182;29;20027;-82
2022/08/31 02:35:55;;;;;;;4.37;2.43;;;;;;;17.16;69.31;101981.03;5148460;28;20047;-83
2022/08/31 02:38:26;;;;;;;1.93;1.57;;;;;;;17.07;69.92;101973.69;5137746;29;20036;-82
2022/08/31 02:40:58;;;;;;;3.30;2.20;;;;;;;16.96;70.05;101968.31;5129865;29;20031;-82
2022/08/31 02:43:29;;;;;;;2.33;1.63;;;;;;;17.11;69.15;101975.22;5141827;29;20035;-83
2022/08/31 02:46:00;;;;;;;4.33;1.90;;;;;;;16.91;70.50;101982.69;5147725;29;20047;-82
2022/08/31 02:48:31;;;;;;;2.90;1.97;;;;;;;16.82;70.47;101972.75;5140999;29;20035;-83
2022/08/31 02:51:07;;;;;;;3.00;2.00;;;;;;;16.87;70.42;101970.66;5147929;29;20272;-83
2022/08/31 02:53:38;;;;;;;3.80;2.20;;;;;;;16.80;71.12;101974.66;5146296;28;20042;-83
2022/08/31 02:56:12;;;;;;;2.93;1.77;;;;;;;16.75;71.04;101966.19;5146282;29;20585;-83
2022/08/31 02:58:44;;;;;;;;;;;;;;;17.14;68.19;101966.22;5149130;28;20110;-83
2022/08/31 03:01:15;;;;;;;3.07;1.93;;;;;;;16.67;71.12;101970.19;5162365;28;20013;-84
2022/08/31 03:03:47;;;;;;;5.97;2.47;;;;;;;16.69;71.35;101973.59;5149638;29;20581;-81
2022/08/31 03:06:19;;;;;;;5.40;2.07;;;;;;;16.69;71.25;101970.94;5149143;28;20027;-82
2022/08/31 03:08:51;;;;;;;5.93;1.87;;;;;;;16.83;70.21;101969.16;5137768;28;20082;-82
2022/08/31 03:11:22;;;;;;;2.43;1.97;;;;;;;16.74;70.99;101972.44;5129589;29;20031;-83
2022/08/31 03:13:53;;;;;;;3.67;2.30;;;;;;;16.67;71.52;101970.19;5146388;29;20405;-83
2022/08/31 03:16:25;;;;;;;3.40;2.10;;;;;;;16.69;71.25;101978.88;5131904;28;20032;-83
2022/08/31 03:18:57;;;;;;;3.43;2.37;;;;;;;16.54;71.80;101961.41;5136481;29;20031;-83
2022/08/31 03:21:28;;;;;;;5.00;2.10;;;;;;;16.73;70.77;101966.31;5140770;28;20402;-81
2022/08/31 03:23:59;;;;;;;4.53;2.23;;;;;;;16.59;71.18;101963.75;5133862;29;20070;-82
2022/08/31 03:26:31;;;;;;;10.63;2.23;;;;;;;16.54;71.66;101974.63;5139195;29;20035;-82
2022/08/31 03:29:03;;;;;;;6.10;2.30;;;;;;;16.54;71.47;101972.00;5149258;28;20051;-81
2022/08/31 03:31:35;;;;;;;6.00;2.30;;;;;;;16.54;71.70;101975.50;5132364;29;20045;-81
2022/08/31 03:34:06;;;;;;;3.43;2.10;;;;;;;16.39;71.77;101972.06;5145399;28;20058;-82
2022/08/31 03:36:37;;;;;;;4.33;2.23;;;;;;;16.50;71.14;101974.00;5147176;29;20599;-83
2022/08/31 03:39:08;;;;;;;3.33;1.90;;;;;;;16.31;72.28;101975.22;5147051;28;20051;-83
2022/08/31 03:41:40;;;;;;;3.07;2.40;;;;;;;16.29;72.34;101978.91;5147124;28;20599;-83
2022/08/31 03:44:11;;;;;;;5.40;2.20;;;;;;;16.26;72.38;101977.34;5140330;29;20403;-83
2022/08/31 03:46:44;;;;;;;4.40;2.43;;;;;;;16.17;72.53;101978.78;5129238;28;20077;-83
2022/08/31 03:49:17;;;;;;;4.93;2.40;;;;;;;16.43;71.69;101984.13;5132747;29;20023;-82
2022/08/31 03:51:48;;;;;;;4.43;1.97;;;;;;;16.36;71.70;101972.28;5146024;28;20632;-82
2022/08/31 03:54:20;;;;;;;3.17;1.97;;;;;;;16.43;71.18;101980.63;5134504;28;20067;-83
2022/08/31 03:56:51;;;;;;;4.57;2.20;;;;;;;16.22;71.46;101965.25;5139334;28;20067;-82
2022/08/31 03:59:22;;;;;;;5.40;2.07;;;;;;;16.20;71.98;101975.94;5147591;29;20039;-83
2022/08/31 04:01:54;;;;;;;5.93;2.17;;;;;;;16.20;71.80;101972.44;5144411;28;20074;-83
2022/08/31 04:04:25;;;;;;;3.33;2.07;;;;;;;16.17;71.72;101970.84;5146582;28;20035;-83
2022/08/31 04:06:56;;;;;;;8.33;2.53;;;;;;;16.10;71.79;101966.91;5146263;28;20086;-83
2022/08/31 04:09:28;;;;;;;3.67;2.20;;;;;;;16.24;71.03;101978.38;5150272;28;20042;-83
2022/08/31 04:11:59;;;;;;;6.57;2.17;;;;;;;16.11;71.63;101976.53;5129236;29;20503;-81
2022/08/31 04:14:30;;;;;;;7.13;1.83;;;;;;;16.12;71.65;101972.09;5145109;28;20383;-82
2022/08/31 04:17:02;;;;;;;7.50;2.57;;;;;;;16.11;71.13;101968.59;5136765;29;20067;-82
2022/08/31 04:19:33;;;;;;;5.10;2.10;;;;;;;16.00;71.41;101971.97;5139999;29;20024;-82
2022/08/31 04:22:04;;;;;;;5.27;2.17;;;;;;;15.87;71.60;101968.38;5133397;29;20078;-82
2022/08/31 04:24:35;;;;;;;4.03;2.03;;;;;;;15.96;71.39;101987.16;5136717;29;20155;-83
2022/08/31 04:27:07;;;;;;;10.27;1.97;;;;;;;15.90;71.51;101990.16;5146348;29;20082;-83
2022/08/31 04:29:38;;;;;;;7.00;3.03;;;;;;;15.89;71.66;101985.84;5137023;29;20031;-82
2022/08/31 04:32:09;;;;;;;4.83;2.00;;;;;;;15.95;70.97;101985.44;5145238;29;20027;-83
2022/08/31 04:34:41;;;;;;;5.70;2.03;;;;;;;15.89;70.93;101990.25;5147861;28;20034;-82
2022/08/31 04:37:13;;;;;;;5.10;1.90;;;;;;;15.75;71.08;101988.50;5148806;29;20039;-83
2022/08/31 04:39:45;;;;;;;2.77;2.07;;;;;;;15.74;70.99;101992.97;5147872;28;20471;-82
2022/08/31 04:42:16;;;;;;;3.27;1.90;;;;;;;15.71;71.12;102003.69;5150994;28;20027;-83
2022/08/31 04:44:48;;;;;;;5.13;2.10;;;;;;;15.76;70.81;101993.69;5148265;28;20043;-81
2022/08/31 04:47:19;;;;;;;4.47;2.37;;;;;;;15.77;70.41;101991.91;5143957;29;20469;-84
2022/08/31 04:49:50;;;;;;;5.77;3.20;;;;;;;15.75;70.20;101988.50;5148499;29;20507;-85
2022/08/31 04:52:22;;;;;;;3.43;2.17;;;;;;;15.70;70.22;101988.81;5148555;29;20038;-85
2022/08/31 04:54:53;;;;;;;4.13;1.60;;;;;;;15.70;70.02;101987.03;5145917;28;20043;-84
2022/08/31 04:57:26;;;;;;;7.37;1.80;;;;;;;15.73;69.66;102005.31;5143788;29;20028;-86
2022/08/31 04:59:57;;;;;;;4.47;1.80;;;;;;;15.56;70.01;101995.81;5157959;28;20050;-86
2022/08/31 05:02:29;;;;;;;3.10;1.77;;;;;;;15.58;69.76;102001.00;5143407;28;20062;-86
2022/08/31 05:05:00;;;;;;;8.40;2.50;;;;;;;15.45;70.32;102003.53;5147559;28;20055;-83
2022/08/31 05:07:31;;;;;;;3.80;1.60;;;;;;;15.40;71.01;102005.63;5146382;28;20701;-79
2022/08/31 05:10:04;;;;;;;3.97;2.40;;;;;;;15.42;70.54;101999.31;5146201;28;20054;-78
2022/08/31 05:12:35;;;;;;;3.77;1.60;;;;;;;15.59;70.14;102000.03;5146515;28;20027;-82
2022/08/31 05:15:06;;;;;;;4.90;1.70;;;;;;;15.33;70.74;102000.75;5147316;28;20441;-80
2022/08/31 05:17:38;;;;;;;4.70;1.93;;;;;;;15.44;70.39;102007.13;5145741;28;20137;-80
2022/08/31 05:20:09;;;;;;;7.83;2.30;;;;;;;15.43;70.53;102008.91;5146290;28;20035;-81
2022/08/31 05:22:40;;;;;;;4.23;1.67;;;;;;;15.38;70.52;102003.09;5145061;28;20142;-81
2022/08/31 05:25:11;;;;;;;4.67;2.27;;;;;;;15.46;69.70;102011.38;5146693;28;20081;-80
2022/08/31 05:27:43;;;;;;;3.87;1.60;;;;;;;15.38;70.00;102012.81;5145798;28;20046;-81
2022/08/31 05:30:14;;;;;;;5.23;2.10;;;;;;;15.35;69.83;102009.41;5148823;28;20094;-87
2022/08/31 05:32:46;;;;;;;7.63;1.90;;;;;;;15.37;69.77;102025.16;5131885;28;20040;-87
2022/08/31 05:35:17;;;;;;;6.73;2.00;;;;;;;15.26;69.57;102003.84;5148032;28;20026;-89
2022/08/31 05:37:49;;;;;;;5.37;1.70;;;;;;;15.38;69.48;102008.38;5148115;29;20429;-88
2022/08/31 05:40:20;;;;;;;7.20;1.80;;;;;;;15.40;69.04;102011.75;5147767;28;20035;-82
2022/08/31 05:42:52;;;;;;;5.43;1.73;;;;;;;15.38;69.07;102018.91;5147367;28;20446;-83
2022/08/31 05:45:23;;;;;;;5.73;2.13;;;;;;;15.47;68.45;102015.72;5148288;28;20133;-82
2022/08/31 05:47:55;;;;;;;3.40;1.50;;;;;;;15.48;68.23;102020.03;5149718;28;20037;-80
2022/08/31 05:50:26;;;;;;;4.40;1.77;;;;;;;15.38;68.29;102023.38;5148974;28;20393;-78
2022/08/31 05:52:57;;;;;;;4.83;1.53;;;;;;;15.44;67.64;102010.63;5146331;28;20007;-77
2022/08/31 05:55:30;;;;;;;3.93;1.53;;;;;;;15.38;68.12;102020.72;5149016;28;20056;-77
2022/08/31 05:58:01;;;;;;;4.40;1.20;;;;;;;15.27;67.97;102014.31;5150252;28;20521;-79
2022/08/31 06:00:33;;;;;;;4.43;2.07;;;;;;;15.42;67.75;102030.13;5147819;28;20109;-79
2022/08/31 06:03:04;;;;;;;5.93;1.37;;;;;;;15.30;67.71;102016.78;5152647;28;20043;-79
2022/08/31 06:05:36;;;;;;;4.17;1.60;;;;;;;15.39;66.85;102023.28;5152631;28;20644;-82
2022/08/31 06:08:07;;;;;;;2.63;1.30;;;;;;;15.45;66.85;102028.16;5152186;28;20077;-83
2022/08/31 06:10:38;;;;;;;7.47;1.40;;;;;;;15.34;66.65;102028.81;5145178;29;20027;-83
2022/08/31 06:13:13;;;;;;;3.17;1.57;;;;;;;15.48;66.75;102040.34;5136170;29;20027;-80
2022/08/31 06:15:45;;;;;;;;;;;;;;;15.73;65.97;102038.78;5151495;28;20093;-81
2022/08/31 06:18:16;;;;;;;6.70;1.53;;;;;;;15.53;66.17;102034.75;5155359;28;19922;-82
2022/08/31 06:20:48;;;;;;;5.43;1.67;;;;;;;15.69;65.29;102038.13;5154605;28;20042;-82
2022/08/31 06:23:19;;;;;;;4.20;1.60;;;;;;;15.60;65.72;102039.56;5164306;28;20478;-83
2022/08/31 06:25:50;;;;;;;4.03;1.40;;;;;;;15.62;65.51;102039.47;5150341;28;20091;-82
2022/08/31 06:28:22;;;;;;;4.47;1.30;;;;;;;15.67;65.90;102040.03;5154914;28;20031;-82
2022/08/31 06:30:53;;;;;;;5.80;1.93;;;;;;;15.69;65.62;102038.13;5153153;28;20031;-81
2022/08/31 06:33:24;;;;;;;4.07;1.93;;;;;;;15.72;65.60;102047.66;5147001;28;20023;-89
2022/08/31 06:35:55;;;;;;;6.07;1.90;;;;;;;15.72;64.63;102051.16;5150494;29;20148;-88
2022/08/31 06:38:27;;;;;;;3.70;1.50;;;;;;;15.83;65.02;102061.03;5143588;28;20026;-88
2022/08/31 06:40:58;;;;;;;4.47;1.50;;;;;;;15.83;64.35;102054.94;5138613;28;20489;-87
2022/08/31 06:43:29;;;;;;;3.93;1.53;;;;;;;15.86;64.76;102060.00;5140334;28;20486;-89
2022/08/31 06:46:01;;;;;;;4.50;1.40;;;;;;;16.06;63.92;102047.34;5154889;28;20244;-87
2022/08/31 06:48:33;;;;;;;3.93;1.57;;;;;;;15.97;64.56;102057.53;5146898;28;20106;-88
2022/08/31 06:51:06;;;;;;;5.17;1.60;;;;;;;16.01;63.67;102052.06;5147020;28;20035;-87
2022/08/31 06:53:39;;;;;;;4.27;1.30;;;;;;;16.04;63.42;102055.34;5148003;28;20023;-88
2022/08/31 06:56:19;;;;;;;3.40;1.75;;;;;;;16.18;63.00;102059.75;5144878;28;20031;-90
2022/08/31 06:58:51;;;;;;;4.83;1.77;;;;;;;16.13;63.47;102066.31;5148447;28;20508;-89
2022/08/31 07:01:28;;;;;;;6.37;1.60;;;;;;;16.23;63.34;102067.41;5144811;28;20031;-87
2022/08/31 07:04:02;;;;;;;2.80;1.70;;;;;;;16.36;62.92;102066.59;5148817;29;20042;-88
2022/08/31 07:06:39;;;;;;;5.97;1.95;;;;;;;16.32;63.35;102061.50;5148945;28;20066;-88
2022/08/31 07:09:16;;;;;;;15.20;1.90;;;;;;;16.45;62.19;102060.72;5141078;28;20035;-88
2022/08/31 07:11:50;;;;;;;4.37;1.50;;;;;;;16.48;62.11;102060.50;5147962;28;20028;-89
2022/08/31 07:14:24;;;;;;;7.10;1.60;;;;;;;16.53;61.78;102071.63;5143081;28;20087;-88
2022/08/31 07:16:57;;;;;;;8.23;1.70;;;;;;;16.60;60.97;102050.06;5146200;28;20027;-87
2022/08/31 07:19:28;;;;;;;4.47;1.47;;;;;;;16.65;61.06;102061.19;5148119;29;20031;-87
2022/08/31 07:22:00;;;;;;;5.87;1.60;;;;;;;16.73;60.28;102064.19;5151652;28;20038;-87
2022/08/31 07:24:33;;;;;;;3.37;1.80;;;;;;;16.79;60.61;102052.34;5142491;29;20091;-83
2022/08/31 07:27:11;;;;;;;3.07;1.37;;;;;;;17.04;60.29;102069.19;5134913;28;20031;-82
2022/08/31 07:29:43;;;;;;;6.03;1.27;;;;;;;17.33;58.86;102061.06;5148040;29;20094;-81
2022/08/31 07:32:16;;;;;;;4.00;1.90;;;;;;;17.31;58.63;102060.34;5143871;28;20035;-81
2022/08/31 07:34:48;;;;;;;3.40;1.50;;;;;;;17.63;57.87;102059.00;5140923;29;20153;-79
2022/08/31 07:43:03;;;;;;;5.90;1.67;;;;;;;18.33;56.31;102054.03;5143310;28;20043;-84
2022/08/31 07:45:34;;;;;;;5.43;1.67;;;;;;;18.91;55.03;102051.56;5143556;29;20471;-86
2022/08/31 07:48:06;;;;;;;4.07;1.70;;;;;;;19.41;53.76;102048.63;5147554;29;20114;-80
2022/08/31 07:50:43;;;;;;;4.47;1.97;;;;;;;20.06;51.67;102053.28;5133493;29;20570;-82
2022/08/31 07:53:15;;;;;;;6.50;1.30;;;;;;;20.63;50.56;102059.34;5143328;28;20368;-85
2022/08/31 07:55:46;;;;;;;5.90;1.37;;;;;;;21.06;49.71;102046.03;5159041;28;20039;-81
2022/08/31 07:58:21;;;;;;;5.65;1.60;;;;;;;21.49;47.84;102058.28;5152627;28;20031;-80
2022/08/31 08:00:52;;;;;;;6.18;1.95;;;;;;;22.48;46.05;102061.09;5145497;28;20423;-78
2022/08/31 08:03:26;;;;;;;6.57;1.40;;;;;;;22.54;45.29;102050.84;5146325;28;20041;-76
2022/08/31 08:05:58;;;;;;;4.35;1.50;;;;;;;23.11;44.35;102063.41;5147566;28;20086;-78
2022/08/31 08:08:30;;;;;;;3.00;1.38;;;;;;;23.36;43.73;102058.38;5144759;28;20055;-81
2022/08/31 08:11:01;;;;;;;7.72;1.70;;;;;;;23.60;43.06;102065.06;5143562;28;20042;-81
2022/08/31 08:13:32;;;;;;;5.30;1.88;;;;;;;24.06;41.85;102080.25;5147148;28;20475;-81
2022/08/31 08:16:04;;;;;;;4.05;1.33;;;;;;;24.56;40.65;102082.56;5144312;29;20027;-83
2022/08/31 08:18:35;;;;;;;2.72;1.70;;;;;;;24.57;40.51;102076.22;5146255;29;20050;-81
2022/08/31 08:21:07;;;;;;;4.75;1.50;;;;;;;24.83;40.07;102081.59;5141025;28;20076;-82
2022/08/31 08:23:38;;;;;;;3.45;1.50;;;;;;;25.18;39.66;102078.13;5141524;28;20043;-78
2022/08/31 08:26:10;;;;;;;5.53;2.30;;;;;;;25.72;38.80;102083.25;5155887;28;20204;-83
2022/08/31 08:28:41;;;;;;;5.70;1.38;;;;;;;25.44;38.70;102083.47;5144246;28;20034;-80
2022/08/31 08:31:16;;;;;;;4.97;1.80;;;;;;;25.25;39.51;102087.22;5145431;28;20035;-82
2022/08/31 08:33:49;;;;;;;4.30;1.42;;;;;;;24.82;40.07;102097.81;5152315;28;20516;-78
2022/08/31 08:36:20;;;;;;;7.57;1.60;;;;;;;25.21;39.83;102088.53;5138413;28;20066;-83
2022/08/31 08:38:52;;;;;;;9.13;1.83;;;;;;;24.81;39.85;102090.78;5149087;29;20127;-82
2022/08/31 08:41:26;;;;;;;7.50;1.98;;;;;;;24.38;41.10;102100.31;5141380;28;20027;-81
2022/08/31 08:44:00;;;;;;;4.68;1.70;;;;;;;24.33;41.32;102107.97;5138050;28;20233;-81
2022/08/31 08:46:33;;;;;;;4.60;1.85;;;;;;;23.71;42.54;102103.28;5130727;29;20027;-80
2022/08/31 08:49:14;;;;;;;4.43;1.83;;;;;;;23.78;43.18;102097.19;5134066;29;20031;-79
2022/08/31 08:51:50;;;;;;;4.82;1.80;;;;;;;23.63;43.14;102102.22;5138287;28;20382;-80
2022/08/31 08:54:44;;;;;;;3.67;1.85;;;;;;;23.69;44.07;102098.06;5143039;28;20019;-79
2022/08/31 08:57:21;;;;;;;7.55;2.03;;;;;;;23.27;44.26;102086.84;5144320;28;20093;-80
2022/08/31 08:59:56;;;;;;;6.68;2.00;;;;;;;23.41;44.12;102093.56;5141474;28;20402;-81
2022/08/31 09:02:45;;;;;;;8.45;2.13;;;;;;;24.46;43.15;102090.66;5146912;28;20035;-77
2022/08/31 09:05:40;;;;;;;6.85;1.92;;;;;;;25.48;41.51;102086.66;5147436;28;20065;-80
2022/08/31 09:08:22;;;;;;;3.58;1.80;;;;;;;25.71;40.26;102086.91;5142529;29;20028;-82
2022/08/31 09:11:06;;;;;;;3.67;2.00;;;;;;;26.39;39.56;102079.84;5137215;28;20368;-82
2022/08/31 09:13:54;;;;;;;8.40;2.25;;;;;;;27.11;37.42;102085.47;5151670;28;20122;-82
2022/08/31 09:16:51;;;;;;;5.53;1.95;;;;;;;28.08;37.56;102080.81;5146222;28;20152;-81
2022/08/31 09:19:22;;;;;;;5.05;2.15;;;;;;;27.75;35.76;102078.34;5137450;29;20028;-82
2022/08/31 09:21:56;;;;;;;8.27;1.95;;;;;;;28.78;34.15;102084.44;5151606;28;20058;-82
2022/08/31 09:24:31;;;;;;;3.70;2.40;;;;;;;28.74;34.28;102079.41;5147750;28;20779;-81
2022/08/31 09:27:16;;;;;;;7.10;1.98;;;;;;;29.16;33.20;102087.09;5153818;28;20398;-86
2022/08/31 09:29:57;;;;;;;10.05;2.42;;;;;;;29.38;34.22;102081.75;5147481;29;20743;-84
2022/08/31 09:32:35;;;;;;;4.75;2.50;;;;;;;29.37;33.70;102084.63;5144827;28;20062;-84
2022/08/31 09:35:22;;;;;;;3.38;2.15;;;;;;;28.87;33.28;102084.16;5150261;29;20031;-83
2022/08/31 09:38:00;;;;;;;4.65;2.25;;;;;;;28.81;34.29;102081.38;5138519;28;20051;-83
2022/08/31 09:40:35;;;;;;;6.10;2.20;;;;;;;28.86;33.69;102081.66;5139051;28;20537;-84
2022/08/31 09:43:25;;;;;;;5.53;2.45;;;;;;;28.26;34.78;102079.63;5160466;28;20122;-77
2022/08/31 09:46:11;;;;;;;7.50;2.53;;;;;;;29.05;34.72;102082.97;5147877;28;20563;-77
2022/08/31 09:48:52;;;;;;;7.47;2.42;;;;;;;28.99;34.11;102079.16;5146374;28;20094;-76
2022/08/31 09:51:43;;;;;;;5.50;2.33;;;;;;;28.55;34.52;102088.88;5145816;28;20025;-77
2022/08/31 09:57:06;;;;;;;5.20;2.10;;;;;;;28.79;33.91;102081.56;5134028;28;20446;-77
2022/08/31 09:59:45;;;;;;;5.07;2.28;;;;;;;29.58;33.32;102078.44;5140008;28;20031;-77
2022/08/31 10:02:21;;;;;;;4.43;2.50;;;;;;;28.91;33.67;102081.09;5146085;28;20031;-77
2022/08/31 10:04:55;;;;;;;5.88;2.60;;;;;;;28.42;34.95;102070.63;5146241;28;20724;-77
2022/08/31 10:08:06;;;;;;;5.55;2.80;;;;;;;29.53;33.97;102068.25;5147043;28;20046;-76
2022/08/31 10:10:39;;;;;;;6.93;2.60;;;;;;;28.99;33.94;102071.06;5146453;28;20035;-77
2022/08/31 10:13:36;;;;;;;5.93;2.60;;;;;;;29.68;33.65;102064.66;5142355;28;20306;-77
2022/08/31 10:16:15;;;;;;;6.50;2.17;;;;;;;30.23;32.96;102066.06;5148476;28;20065;-77
2022/08/31 10:18:54;;;;;;;7.82;2.17;;;;;;;30.65;31.56;102061.56;5147073;29;20031;-78
2022/08/31 10:21:50;;;;;;;5.65;2.53;;;;;;;31.56;31.46;102071.63;5134697;28;20023;-81
2022/08/31 10:24:33;;;;;;;6.80;2.90;;;;;;;31.33;31.36;102075.47;5146042;28;20114;-78
2022/08/31 10:27:14;;;;;;;5.20;2.22;;;;;;;31.35;31.24;102061.75;5154716;28;20035;-79
2022/08/31 10:29:58;;;;;;;8.60;2.53;;;;;;;30.34;31.39;102062.00;5146110;28;20061;-78
2022/08/31 10:32:42;;;;;;;5.75;2.30;;;;;;;30.62;32.17;102061.97;5144412;28;20066;-78
2022/08/31 10:35:26;;;;;;;7.05;2.38;;;;;;;31.25;31.25;102062.97;5145466;28;20074;-77
2022/08/31 10:38:07;;;;;;;9.68;3.50;;;;;;;30.77;31.80;102059.16;5140484;28;20102;-78
2022/08/31 10:40:48;;;;;;;4.25;2.35;;;;;;;31.01;31.18;102061.59;5146220;28;20494;-78
2022/08/31 10:43:22;;;;;;;10.13;2.53;;;;;;;30.39;31.94;102065.75;5146968;28;20035;-79
2022/08/31 10:45:54;;;;;;;5.72;2.70;;;;;;;30.42;31.98;102051.03;5149281;28;20019;-78
2022/08/31 10:48:26;;;;;;;9.93;2.90;;;;;;;30.70;31.79;102061.00;5147454;29;20101;-78
2022/08/31 10:51:21;;;;;;;7.93;2.83;;;;;;;30.79;32.40;102053.56;5143365;28;20038;-78
2022/08/31 10:54:03;;;;;;;3.63;2.55;;;;;;;29.54;32.67;102050.16;5144781;28;20660;-79
2022/08/31 10:56:59;;;;;;;8.02;2.78;;;;;;;30.73;31.64;102057.06;5141014;28;20020;-78
2022/08/31 11:00:40;;;;;;;10.93;2.80;;;;;;;30.34;33.18;102052.00;5118564;28;20039;-79
2022/08/31 11:03:18;;;;;;;5.70;2.58;;;;;;;30.26;32.87;102060.25;5136264;28;20079;-78
2022/08/31 11:05:49;;;;;;;8.95;3.22;;;;;;;28.78;34.12;102054.78;5156143;28;20035;-79
2022/08/31 11:08:32;;;;;;;7.70;2.83;;;;;;;29.72;33.78;102044.38;5146748;29;20050;-78
2022/08/31 11:11:09;;;;;;;6.93;2.60;;;;;;;30.07;32.66;102040.97;5144443;28;20230;-78
2022/08/31 11:14:06;;;;;;;7.05;3.20;;;;;;;29.69;33.97;102050.16;5147459;28;20512;-79
2022/08/31 11:16:42;;;;;;;5.93;2.72;;;;;;;28.89;34.62;102051.63;5147269;28;20367;-79
2022/08/31 11:19:27;;;;;;;5.70;2.58;;;;;;;29.10;34.48;102044.66;5147282;29;20048;-79
2022/08/31 11:22:36;;;;;;;10.20;2.70;;;;;;;28.92;34.71;102051.25;5142561;28;20479;-79
2022/08/31 11:25:26;;;;;;;6.30;2.88;;;;;;;29.06;34.89;102056.88;5157562;28;20043;-79
2022/08/31 11:28:08;;;;;;;8.25;2.25;;;;;;;29.06;35.36;102046.91;5142325;29;20039;-85
2022/08/31 11:30:47;;;;;;;16.15;2.50;;;;;;;28.60;35.43;102043.34;5144904;28;20038;-83
2022/08/31 11:33:26;;;;;;;8.00;3.38;;;;;;;28.57;35.19;102042.88;5161936;28;20031;-79
2022/08/31 11:36:05;;;;;;;10.65;2.80;;;;;;;28.50;35.50;102048.97;5145160;28;20050;-79
2022/08/31 11:38:53;;;;;;;11.20;3.28;;;;;;;28.69;35.78;102033.31;5146891;28;20035;-79
2022/08/31 11:41:49;;;;;;;6.07;2.58;;;;;;;28.72;35.73;102040.19;5132190;28;20494;-79
2022/08/31 11:44:38;;;;;;;9.48;3.35;;;;;;;28.73;35.35;102031.91;5148383;28;20035;-78
2022/08/31 11:47:27;;;;;;;6.93;2.53;;;;;;;28.03;36.70;102032.03;5145436;29;20047;-79
2022/08/31 11:50:02;;;;;;;4.28;2.40;;;;;;;27.99;36.06;102026.19;5148577;29;20046;-79
2022/08/31 11:52:42;;;;;;;5.28;2.60;;;;;;;28.40;35.90;102032.25;5142023;28;20035;-78
2022/08/31 11:55:27;;;;;;;8.00;3.00;;;;;;;28.27;36.94;102028.31;5140202;28;20114;-76
2022/08/31 11:58:05;;;;;;;5.90;2.30;;;;;;;27.97;36.57;102028.22;5147965;28;20042;-77
2022/08/31 12:00:46;;;;;;;7.65;2.92;;;;;;;28.68;35.55;102015.47;5146790;28;20031;-77
2022/08/31 12:03:51;;;;;;;7.10;2.60;;;;;;;28.56;36.36;102015.09;5145317;28;20078;-77
2022/08/31 12:06:30;;;;;;;12.55;2.70;;;;;;;28.31;36.23;102022.56;5147405;28;20031;-77
2022/08/31 12:09:20;;;;;;;6.72;2.38;;;;;;;29.01;35.19;102010.75;5148043;28;20066;-76
2022/08/31 12:12:23;;;;;;;8.60;2.20;;;;;;;28.68;36.03;102003.88;5140508;28;20134;-76
2022/08/31 12:15:06;;;;;;;8.27;2.20;;;;;;;28.46;37.11;102007.28;5143827;28;20043;-77
2022/08/31 12:17:55;;;;;;;10.20;2.70;;;;;;;29.21;35.08;101990.25;5149863;28;20482;-77